sensor_id;sensor_type;location;lat;lon;timestamp;pressure;altitude;pressure_sealevel;temperature;humidity
35151;BME280;55720;51.972;4.624;2023-04-01T00:01:18;99631.19;;;8.74;100.00
35151;BME280;55720;51.972;4.624;2023-04-01T00:03:43;99642.13;;;8.74;100.00
35151;BME280;55720;51.972;4.624;2023-04-01T00:06:13;99635.13;;;8.61;100.00
35151;BME280;55720;51.972;4.624;2023-04-01T00:08:38;99637.88;;;8.61;100.00
35151;BME280;55720;51.972;4.624;2023-04-01T00:11:04;99638.53;;;8.58;100.00
35151;BME280;55720;51.972;4.624;2023-04-01T00:13:29;99629.91;;;8.56;100.00
35151;BME280;55720;51.972;4.624;2023-04-01T00:15:55;99610.28;;;8.54;100.00
35151;BME280;55720;51.972;4.624;2023-04-01T00:18:21;99625.13;;;8.53;100.00
35151;BME280;55720;51.972;4.624;2023-04-01T00:20:48;99620.00;;;8.51;100.00
35151;BME280;55720;51.972;4.624;2023-04-01T00:23:15;99610.66;;;8.52;100.00
35151;BME280;55720;51.972;4.624;2023-04-01T00:25:41;99609.84;;;8.52;100.00
35151;BME280;55720;51.972;4.624;2023-04-01T00:28:07;99603.94;;;8.50;100.00
35151;BME280;55720;51.972;4.624;2023-04-01T00:30:32;99600.03;;;8.51;100.00
35151;BME280;55720;51.972;4.624;2023-04-01T00:32:57;99593.78;;;8.50;100.00
35151;BME280;55720;51.972;4.624;2023-04-01T00:35:23;99590.16;;;8.46;100.00
35151;BME280;55720;51.972;4.624;2023-04-01T00:37:48;99588.66;;;8.49;100.00
35151;BME280;55720;51.972;4.624;2023-04-01T00:42:57;99570.94;;;8.43;100.00
35151;BME280;55720;51.972;4.624;2023-04-01T00:45:27;99567.81;;;8.44;100.00
35151;BME280;55720;51.972;4.624;2023-04-01T00:47:54;99563.16;;;8.45;100.00
35151;BME280;55720;51.972;4.624;2023-04-01T00:50:22;99555.19;;;8.39;100.00
35151;BME280;55720;51.972;4.624;2023-04-01T00:52:50;99552.81;;;8.38;100.00
35151;BME280;55720;51.972;4.624;2023-04-01T00:55:16;99552.00;;;8.37;100.00
35151;BME280;55720;51.972;4.624;2023-04-01T00:57:45;99544.94;;;8.36;100.00
35151;BME280;55720;51.972;4.624;2023-04-01T01:00:12;99546.56;;;8.37;100.00
35151;BME280;55720;51.972;4.624;2023-04-01T01:02:58;99542.56;;;8.35;100.00
35151;BME280;55720;51.972;4.624;2023-04-01T01:05:36;99544.94;;;8.36;100.00
35151;BME280;55720;51.972;4.624;2023-04-01T01:08:18;99519.44;;;8.32;100.00
35151;BME280;55720;51.972;4.624;2023-04-01T01:10:49;99534.28;;;8.31;100.00
35151;BME280;55720;51.972;4.624;2023-04-01T01:13:26;99534.28;;;8.31;100.00
35151;BME280;55720;51.972;4.624;2023-04-01T01:16:20;99524.81;;;8.29;100.00
35151;BME280;55720;51.972;4.624;2023-04-01T01:18:54;99539.63;;;8.28;100.00
35151;BME280;55720;51.972;4.624;2023-04-01T01:24:30;99540.88;;;8.30;100.00
35151;BME280;55720;51.972;4.624;2023-04-01T01:29:40;99532.09;;;8.25;100.00
35151;BME280;55720;51.972;4.624;2023-04-01T01:35:14;99534.06;;;8.24;100.00
35151;BME280;55720;51.972;4.624;2023-04-01T01:37:42;99534.81;;;8.25;100.00
35151;BME280;55720;51.972;4.624;2023-04-01T01:40:11;99526.19;;;8.23;100.00
35151;BME280;55720;51.972;4.624;2023-04-01T01:42:39;99529.81;;;8.27;100.00
35151;BME280;55720;51.972;4.624;2023-04-01T01:45:06;99517.19;;;8.22;100.00
35151;BME280;55720;51.972;4.624;2023-04-01T01:47:34;99527.31;;;8.22;100.00
35151;BME280;55720;51.972;4.624;2023-04-01T01:50:01;99522.66;;;8.22;100.00
35151;BME280;55720;51.972;4.624;2023-04-01T01:52:28;99523.34;;;8.19;100.00
35151;BME280;55720;51.972;4.624;2023-04-01T01:54:56;99533.97;;;8.21;100.00
35151;BME280;55720;51.972;4.624;2023-04-01T01:57:33;99534.63;;;8.18;100.00
35151;BME280;55720;51.972;4.624;2023-04-01T02:00:10;99538.63;;;8.20;100.00
35151;BME280;55720;51.972;4.624;2023-04-01T02:02:44;99556.16;;;8.19;100.00
35151;BME280;55720;51.972;4.624;2023-04-01T02:05:26;99552.63;;;8.19;100.00
35151;BME280;55720;51.972;4.624;2023-04-01T02:08:16;99546.72;;;8.17;100.00
35151;BME280;55720;51.972;4.624;2023-04-01T02:10:49;99558.47;;;8.17;100.00
35151;BME280;55720;51.972;4.624;2023-04-01T02:13:29;99564.38;;;8.19;100.00
35151;BME280;55720;51.972;4.624;2023-04-01T02:16:00;99570.97;;;8.18;100.00
35151;BME280;55720;51.972;4.624;2023-04-01T02:18:28;99569.50;;;8.21;100.00
35151;BME280;55720;51.972;4.624;2023-04-01T02:20:57;99573.38;;;8.20;100.00
35151;BME280;55720;51.972;4.624;2023-04-01T02:23:24;99553.75;;;8.18;100.00
35151;BME280;55720;51.972;4.624;2023-04-01T02:25:50;99576.91;;;8.20;100.00
35151;BME280;55720;51.972;4.624;2023-04-01T02:28:17;99573.38;;;8.20;100.00
35151;BME280;55720;51.972;4.624;2023-04-01T02:30:46;99578.84;;;8.20;100.00
35151;BME280;55720;51.972;4.624;2023-04-01T02:33:13;99575.75;;;8.21;100.00
35151;BME280;55720;51.972;4.624;2023-04-01T02:35:38;99576.53;;;8.22;100.00
35151;BME280;55720;51.972;4.624;2023-04-01T02:38:04;99547.16;;;8.19;100.00
35151;BME280;55720;51.972;4.624;2023-04-01T02:40:42;99577.00;;;8.24;100.00
35151;BME280;55720;51.972;4.624;2023-04-01T02:43:07;99573.25;;;8.16;100.00
35151;BME280;55720;51.972;4.624;2023-04-01T02:45:32;99569.41;;;8.17;100.00
35151;BME280;55720;51.972;4.624;2023-04-01T02:47:58;99559.59;;;8.16;100.00
35151;BME280;55720;51.972;4.624;2023-04-01T02:50:23;99556.50;;;8.18;100.00
35151;BME280;55720;51.972;4.624;2023-04-01T02:52:48;99584.31;;;8.20;100.00
35151;BME280;55720;51.972;4.624;2023-04-01T02:55:14;99594.09;;;8.21;100.00
35151;BME280;55720;51.972;4.624;2023-04-01T02:57:39;99591.38;;;8.21;100.00
35151;BME280;55720;51.972;4.624;2023-04-01T03:00:05;99596.25;;;8.27;100.00
35151;BME280;55720;51.972;4.624;2023-04-01T03:02:36;99602.97;;;8.30;100.00
35151;BME280;55720;51.972;4.624;2023-04-01T03:05:02;99605.72;;;8.30;100.00
35151;BME280;55720;51.972;4.624;2023-04-01T03:07:28;99606.50;;;8.30;100.00
35151;BME280;55720;51.972;4.624;2023-04-01T03:09:53;99609.44;;;8.25;100.00
35151;BME280;55720;51.972;4.624;2023-04-01T03:12:18;99622.47;;;8.28;100.00
35151;BME280;55720;51.972;4.624;2023-04-01T03:14:44;99619.72;;;8.28;100.00
35151;BME280;55720;51.972;4.624;2023-04-01T03:17:09;99626.00;;;8.29;100.00
35151;BME280;55720;51.972;4.624;2023-04-01T03:19:34;99631.94;;;8.31;100.00
35151;BME280;55720;51.972;4.624;2023-04-01T03:22:00;99633.97;;;8.34;100.00
35151;BME280;55720;51.972;4.624;2023-04-01T03:24:25;99635.66;;;8.38;100.00
35151;BME280;55720;51.972;4.624;2023-04-01T03:26:51;99640.78;;;8.40;100.00
35151;BME280;55720;51.972;4.624;2023-04-01T03:29:16;99649.88;;;8.44;100.00
35151;BME280;55720;51.972;4.624;2023-04-01T03:31:42;99652.28;;;8.46;100.00
35151;BME280;55720;51.972;4.624;2023-04-01T03:34:07;99644.88;;;8.46;100.00
35151;BME280;55720;51.972;4.624;2023-04-01T03:36:32;99655.44;;;8.48;100.00
35151;BME280;55720;51.972;4.624;2023-04-01T03:38:58;99657.06;;;8.49;100.00
35151;BME280;55720;51.972;4.624;2023-04-01T03:41:23;99655.56;;;8.51;100.00
35151;BME280;55720;51.972;4.624;2023-04-01T03:43:49;99668.19;;;8.56;100.00
35151;BME280;55720;51.972;4.624;2023-04-01T03:46:18;99675.38;;;8.60;100.00
35151;BME280;55720;51.972;4.624;2023-04-01T03:48:43;99672.16;;;8.58;100.00
35151;BME280;55720;51.972;4.624;2023-04-01T03:51:09;99680.03;;;8.60;100.00
35151;BME280;55720;51.972;4.624;2023-04-01T03:53:35;99680.16;;;8.63;100.00
35151;BME280;55720;51.972;4.624;2023-04-01T03:56:04;99685.63;;;8.63;100.00
35151;BME280;55720;51.972;4.624;2023-04-01T03:58:30;99693.38;;;8.61;100.00
35151;BME280;55720;51.972;4.624;2023-04-01T04:00:55;99695.75;;;8.63;100.00
35151;BME280;55720;51.972;4.624;2023-04-01T04:03:20;99709.00;;;8.61;100.00
35151;BME280;55720;51.972;4.624;2023-04-01T04:05:47;99707.84;;;8.62;100.00
35151;BME280;55720;51.972;4.624;2023-04-01T04:08:13;99714.47;;;8.61;100.00
35151;BME280;55720;51.972;4.624;2023-04-01T04:10:38;99721.19;;;8.63;100.00
35151;BME280;55720;51.972;4.624;2023-04-01T04:13:05;99727.00;;;8.62;100.00
35151;BME280;55720;51.972;4.624;2023-04-01T04:15:30;99729.84;;;8.65;100.00
35151;BME280;55720;51.972;4.624;2023-04-01T04:17:55;99742.38;;;8.66;100.00
35151;BME280;55720;51.972;4.624;2023-04-01T04:20:21;99751.72;;;8.65;100.00
35151;BME280;55720;51.972;4.624;2023-04-01T04:22:46;99757.66;;;8.67;100.00
35151;BME280;55720;51.972;4.624;2023-04-01T04:25:11;99765.06;;;8.67;100.00
35151;BME280;55720;51.972;4.624;2023-04-01T04:27:37;99767.00;;;8.66;100.00
35151;BME280;55720;51.972;4.624;2023-04-01T04:30:04;99779.56;;;8.67;100.00
35151;BME280;55720;51.972;4.624;2023-04-01T04:32:30;99778.28;;;8.65;100.00
35151;BME280;55720;51.972;4.624;2023-04-01T04:34:55;99787.41;;;8.69;100.00
35151;BME280;55720;51.972;4.624;2023-04-01T04:37:21;99794.03;;;8.68;100.00
35151;BME280;55720;51.972;4.624;2023-04-01T04:39:46;99798.72;;;8.67;100.00
35151;BME280;55720;51.972;4.624;2023-04-01T04:42:12;99806.34;;;8.62;100.00
35151;BME280;55720;51.972;4.624;2023-04-01T04:44:40;99807.16;;;8.62;100.00
35151;BME280;55720;51.972;4.624;2023-04-01T04:47:05;99811.00;;;8.61;100.00
35151;BME280;55720;51.972;4.624;2023-04-01T04:49:31;99820.38;;;8.60;100.00
35151;BME280;55720;51.972;4.624;2023-04-01T04:51:56;99829.41;;;8.61;100.00
35151;BME280;55720;51.972;4.624;2023-04-01T04:54:21;99839.19;;;8.62;100.00
35151;BME280;55720;51.972;4.624;2023-04-01T04:56:47;99848.09;;;8.59;100.00
35151;BME280;55720;51.972;4.624;2023-04-01T04:59:12;99860.72;;;8.51;100.00
35151;BME280;55720;51.972;4.624;2023-04-01T05:01:38;99866.69;;;8.53;100.00
35151;BME280;55720;51.972;4.624;2023-04-01T05:04:03;99872.16;;;8.53;100.00
35151;BME280;55720;51.972;4.624;2023-04-01T05:06:29;99876.00;;;8.52;100.00
35151;BME280;55720;51.972;4.624;2023-04-01T05:08:55;99891.31;;;8.53;100.00
35151;BME280;55720;51.972;4.624;2023-04-01T05:11:22;99899.16;;;8.55;100.00
35151;BME280;55720;51.972;4.624;2023-04-01T05:13:47;99907.03;;;8.56;100.00
35151;BME280;55720;51.972;4.624;2023-04-01T05:16:15;99919.09;;;8.55;100.00
35151;BME280;55720;51.972;4.624;2023-04-01T05:18:41;99917.84;;;8.53;100.00
35151;BME280;55720;51.972;4.624;2023-04-01T05:21:09;99933.13;;;8.54;100.00
35151;BME280;55720;51.972;4.624;2023-04-01T05:23:34;99938.94;;;8.52;100.00
35151;BME280;55720;51.972;4.624;2023-04-01T05:26:08;99951.13;;;8.55;100.00
35151;BME280;55720;51.972;4.624;2023-04-01T05:28:34;99961.75;;;8.56;100.00
35151;BME280;55720;51.972;4.624;2023-04-01T05:31:00;99970.03;;;8.48;100.00
35151;BME280;55720;51.972;4.624;2023-04-01T05:33:26;99981.47;;;8.50;100.00
35151;BME280;55720;51.972;4.624;2023-04-01T05:35:53;99985.34;;;8.49;100.00
35151;BME280;55720;51.972;4.624;2023-04-01T05:38:18;99991.81;;;8.44;100.00
35151;BME280;55720;51.972;4.624;2023-04-01T05:40:44;99996.28;;;8.49;100.00
35151;BME280;55720;51.972;4.624;2023-04-01T05:43:09;100000.25;;;8.51;100.00
35151;BME280;55720;51.972;4.624;2023-04-01T05:45:35;100007.22;;;8.49;100.00
35151;BME280;55720;51.972;4.624;2023-04-01T05:48:00;100013.50;;;8.49;100.00
35151;BME280;55720;51.972;4.624;2023-04-01T05:50:26;100023.28;;;8.50;100.00
35151;BME280;55720;51.972;4.624;2023-04-01T05:52:51;100026.00;;;8.50;100.00
35151;BME280;55720;51.972;4.624;2023-04-01T05:55:17;100035.25;;;8.58;100.00
35151;BME280;55720;51.972;4.624;2023-04-01T05:57:45;100043.34;;;8.54;100.00
35151;BME280;55720;51.972;4.624;2023-04-01T06:00:11;100048.19;;;8.57;100.00
35151;BME280;55720;51.972;4.624;2023-04-01T06:02:37;100060.56;;;8.55;100.00
35151;BME280;55720;51.972;4.624;2023-04-01T06:07:37;100074.06;;;8.60;100.00
35151;BME280;55720;51.972;4.624;2023-04-01T06:10:11;100081.25;;;8.64;100.00
35151;BME280;55720;51.972;4.624;2023-04-01T06:16:04;100108.00;;;8.59;100.00
35151;BME280;55720;51.972;4.624;2023-04-01T06:26:16;100143.41;;;8.64;100.00
35151;BME280;55720;51.972;4.624;2023-04-01T06:38:08;100168.09;;;8.55;100.00
35151;BME280;55720;51.972;4.624;2023-04-01T06:40:30;100186.16;;;8.48;100.00
35151;BME280;55720;51.972;4.624;2023-04-01T06:46:13;100192.78;;;8.47;100.00
35151;BME280;55720;51.972;4.624;2023-04-01T06:51:59;100206.94;;;8.49;100.00
35151;BME280;55720;51.972;4.624;2023-04-01T06:54:39;100208.13;;;8.39;100.00
35151;BME280;55720;51.972;4.624;2023-04-01T07:00:00;100229.75;;;8.53;100.00
35151;BME280;55720;51.972;4.624;2023-04-01T07:02:41;100240.09;;;8.47;100.00
35151;BME280;55720;51.972;4.624;2023-04-01T07:05:11;100241.38;;;8.50;100.00
35151;BME280;55720;51.972;4.624;2023-04-01T07:07:43;100248.78;;;8.49;100.00
35151;BME280;55720;51.972;4.624;2023-04-01T07:10:17;100257.78;;;8.50;100.00
35151;BME280;55720;51.972;4.624;2023-04-01T07:12:49;100260.84;;;8.48;100.00
35151;BME280;55720;51.972;4.624;2023-04-01T07:15:24;100275.91;;;8.54;100.00
35151;BME280;55720;51.972;4.624;2023-04-01T07:18:17;100290.09;;;8.56;100.00
35151;BME280;55720;51.972;4.624;2023-04-01T07:20:44;100299.41;;;8.55;100.00
35151;BME280;55720;51.972;4.624;2023-04-01T07:23:21;100307.59;;;8.64;100.00
35151;BME280;55720;51.972;4.624;2023-04-01T07:25:52;100316.22;;;8.74;100.00
35151;BME280;55720;51.972;4.624;2023-04-01T07:28:19;100303.50;;;8.70;100.00
35151;BME280;55720;51.972;4.624;2023-04-01T07:36:10;100362.78;;;8.86;100.00
35151;BME280;55720;51.972;4.624;2023-04-01T07:50:16;100385.13;;;8.97;100.00
35151;BME280;55720;51.972;4.624;2023-04-01T08:04:27;100267.38;;;8.97;100.00
35151;BME280;55720;51.972;4.624;2023-04-01T08:07:07;100205.59;;;9.08;100.00
35151;BME280;55720;51.972;4.624;2023-04-01T08:10:02;100149.81;;;9.13;100.00
35151;BME280;55720;51.972;4.624;2023-04-01T08:15:30;100016.06;;;9.27;100.00
35151;BME280;55720;51.972;4.624;2023-04-01T08:21:00;99888.38;;;9.22;100.00
35151;BME280;55720;51.972;4.624;2023-04-01T08:23:30;99829.09;;;9.30;100.00
35151;BME280;55720;51.972;4.624;2023-04-01T08:26:23;99750.69;;;9.10;100.00
35151;BME280;55720;51.972;4.624;2023-04-01T08:31:37;99664.56;;;9.23;100.00
35151;BME280;55720;51.972;4.624;2023-04-01T08:34:10;99642.66;;;9.38;100.00
35151;BME280;55720;51.972;4.624;2023-04-01T08:36:43;99607.72;;;9.67;100.00
35151;BME280;55720;51.972;4.624;2023-04-01T08:39:41;99568.94;;;9.65;100.00
35151;BME280;55720;51.972;4.624;2023-04-01T08:47:52;99452.16;;;9.60;100.00
35151;BME280;55720;51.972;4.624;2023-04-01T09:07:40;99291.84;;;9.28;100.00
35151;BME280;55720;51.972;4.624;2023-04-01T09:10:20;99269.03;;;9.43;100.00
35151;BME280;55720;51.972;4.624;2023-04-01T09:13:07;99244.75;;;9.42;100.00
35151;BME280;55720;51.972;4.624;2023-04-01T09:21:27;99256.41;;;9.58;100.00
35151;BME280;55720;51.972;4.624;2023-04-01T09:24:28;99277.41;;;9.50;100.00
35151;BME280;55720;51.972;4.624;2023-04-01T09:29:35;99295.03;;;9.53;100.00
35151;BME280;55720;51.972;4.624;2023-04-01T09:32:34;99285.44;;;9.62;100.00
35151;BME280;55720;51.972;4.624;2023-04-01T09:43:26;99247.81;;;9.82;100.00
35151;BME280;55720;51.972;4.624;2023-04-01T09:46:10;99240.69;;;9.77;100.00
35151;BME280;55720;51.972;4.624;2023-04-01T10:11:01;99159.25;;;9.78;100.00
35151;BME280;55720;51.972;4.624;2023-04-01T10:44:56;99107.09;;;10.23;100.00
35151;BME280;55720;51.972;4.624;2023-04-01T11:15:22;99109.41;;;9.69;100.00
35151;BME280;55720;51.972;4.624;2023-04-01T11:20:43;99123.25;;;9.79;100.00
35151;BME280;55720;51.972;4.624;2023-04-01T11:23:43;99138.06;;;9.75;100.00
35151;BME280;55720;51.972;4.624;2023-04-01T11:46:17;99181.22;;;10.04;100.00
35151;BME280;55720;51.972;4.624;2023-04-01T12:00:18;99210.34;;;9.89;100.00
35151;BME280;55720;51.972;4.624;2023-04-01T12:08:33;99236.72;;;9.98;100.00
35151;BME280;55720;51.972;4.624;2023-04-01T12:12:00;99253.72;;;10.07;100.00
35151;BME280;55720;51.972;4.624;2023-04-01T12:14:19;99258.66;;;9.98;100.00
35151;BME280;55720;51.972;4.624;2023-04-01T12:19:56;99271.06;;;9.92;100.00
35151;BME280;55720;51.972;4.624;2023-04-01T12:28:05;99285.88;;;10.10;100.00
35151;BME280;55720;51.972;4.624;2023-04-01T12:44:39;99230.00;;;11.04;100.00
35151;BME280;55720;51.972;4.624;2023-04-01T12:47:22;99212.53;;;11.19;100.00
35151;BME280;55720;51.972;4.624;2023-04-01T12:55:44;99184.91;;;11.42;100.00
35151;BME280;55720;51.972;4.624;2023-04-01T13:04:05;99202.63;;;11.11;100.00
35151;BME280;55720;51.972;4.624;2023-04-01T13:28:59;99233.34;;;10.30;100.00
35151;BME280;55720;51.972;4.624;2023-04-01T13:31:51;99235.56;;;10.48;100.00
35151;BME280;55720;51.972;4.624;2023-04-01T13:37:22;99257.41;;;10.67;100.00
35151;BME280;55720;51.972;4.624;2023-04-01T13:42:45;99253.81;;;10.63;100.00
35151;BME280;55720;51.972;4.624;2023-04-01T13:45:17;99258.50;;;10.62;100.00
35151;BME280;55720;51.972;4.624;2023-04-01T14:04:58;99285.78;;;10.25;100.00
35151;BME280;55720;51.972;4.624;2023-04-01T14:07:50;99301.09;;;10.26;100.00
35151;BME280;55720;51.972;4.624;2023-04-01T14:13:24;99329.31;;;10.27;100.00
35151;BME280;55720;51.972;4.624;2023-04-01T14:16:14;99331.63;;;10.25;100.00
35151;BME280;55720;51.972;4.624;2023-04-01T14:19:02;99368.06;;;10.25;100.00
35151;BME280;55720;51.972;4.624;2023-04-01T14:21:35;99384.94;;;10.27;100.00
35151;BME280;55720;51.972;4.624;2023-04-01T14:24:32;99386.28;;;10.14;100.00
35151;BME280;55720;51.972;4.624;2023-04-01T14:27:24;99408.94;;;10.11;100.00
35151;BME280;55720;51.972;4.624;2023-04-01T14:35:25;99446.34;;;10.19;100.00
35151;BME280;55720;51.972;4.624;2023-04-01T14:38:04;99461.75;;;10.27;100.00
35151;BME280;55720;51.972;4.624;2023-04-01T14:40:58;99484.28;;;10.17;100.00
35151;BME280;55720;51.972;4.624;2023-04-01T14:43:44;99501.94;;;10.16;100.00
35151;BME280;55720;51.972;4.624;2023-04-01T14:51:41;99535.47;;;10.29;100.00
35151;BME280;55720;51.972;4.624;2023-04-01T14:54:44;99526.38;;;10.25;100.00
35151;BME280;55720;51.972;4.624;2023-04-01T14:57:23;99558.94;;;10.26;100.00
35151;BME280;55720;51.972;4.624;2023-04-01T15:00:17;99587.44;;;10.22;100.00
35151;BME280;55720;51.972;4.624;2023-04-01T15:02:52;99598.69;;;10.17;100.00
35151;BME280;55720;51.972;4.624;2023-04-01T15:05:32;99608.19;;;10.19;100.00
35151;BME280;55720;51.972;4.624;2023-04-01T15:21:54;99723.81;;;9.90;100.00
35151;BME280;55720;51.972;4.624;2023-04-01T15:43:46;99892.56;;;9.87;100.00
35151;BME280;55720;51.972;4.624;2023-04-01T16:00:10;99936.94;;;9.77;100.00
35151;BME280;55720;51.972;4.624;2023-04-01T16:11:35;99960.16;;;9.68;100.00
35151;BME280;55720;51.972;4.624;2023-04-01T16:22:30;99981.38;;;9.71;100.00
35151;BME280;55720;51.972;4.624;2023-04-01T16:28:21;100013.63;;;9.62;100.00
35151;BME280;55720;51.972;4.624;2023-04-01T16:36:36;100048.81;;;9.48;100.00
35151;BME280;55720;51.972;4.624;2023-04-01T16:42:25;100056.78;;;9.40;100.00
35151;BME280;55720;51.972;4.624;2023-04-01T16:47:29;100068.34;;;9.34;100.00
35151;BME280;55720;51.972;4.624;2023-04-01T16:52:55;100072.44;;;9.28;100.00
35151;BME280;55720;51.972;4.624;2023-04-01T16:55:34;100070.28;;;9.21;100.00
35151;BME280;55720;51.972;4.624;2023-04-01T16:58:01;100091.06;;;9.22;100.00
35151;BME280;55720;51.972;4.624;2023-04-01T17:00:30;100096.75;;;9.17;100.00
35151;BME280;55720;51.972;4.624;2023-04-01T17:03:16;100106.09;;;9.16;100.00
35151;BME280;55720;51.972;4.624;2023-04-01T17:11:16;100122.53;;;9.16;100.00
35151;BME280;55720;51.972;4.624;2023-04-01T17:19:03;100182.22;;;9.23;100.00
35151;BME280;55720;51.972;4.624;2023-04-01T17:29:59;100259.97;;;8.98;100.00
35151;BME280;55720;51.972;4.624;2023-04-01T17:35:27;100289.69;;;8.87;100.00
35151;BME280;55720;51.972;4.624;2023-04-01T17:45:45;100292.16;;;8.80;100.00
35151;BME280;55720;51.972;4.624;2023-04-01T17:59:39;100307.66;;;8.76;100.00
35151;BME280;55720;51.972;4.624;2023-04-01T18:02:24;100314.72;;;8.77;100.00
35151;BME280;55720;51.972;4.624;2023-04-01T18:10:14;100277.94;;;8.66;100.00
35151;BME280;55720;51.972;4.624;2023-04-01T18:15:42;100266.25;;;8.57;100.00
35151;BME280;55720;51.972;4.624;2023-04-01T18:18:36;100257.56;;;8.55;100.00
35151;BME280;55720;51.972;4.624;2023-04-01T18:21:24;100253.91;;;8.51;100.00
35151;BME280;55720;51.972;4.624;2023-04-01T18:27:23;100232.09;;;8.42;100.00
35151;BME280;55720;51.972;4.624;2023-04-01T18:32:52;100223.13;;;8.33;100.00
35151;BME280;55720;51.972;4.624;2023-04-01T18:35:47;100254.03;;;8.33;100.00
35151;BME280;55720;51.972;4.624;2023-04-01T18:38:23;100244.56;;;8.31;100.00
35151;BME280;55720;51.972;4.624;2023-04-01T18:46:37;100276.06;;;8.28;100.00
35151;BME280;55720;51.972;4.624;2023-04-01T18:49:21;100279.63;;;8.29;100.00
35151;BME280;55720;51.972;4.624;2023-04-01T18:57:27;100288.97;;;8.19;100.00
35151;BME280;55720;51.972;4.624;2023-04-01T19:00:28;100298.66;;;8.17;100.00
35151;BME280;55720;51.972;4.624;2023-04-01T19:03:07;100293.84;;;8.14;100.00
35151;BME280;55720;51.972;4.624;2023-04-01T19:05:41;100298.03;;;8.11;100.00
35151;BME280;55720;51.972;4.624;2023-04-01T19:08:27;100302.69;;;8.11;100.00
35151;BME280;55720;51.972;4.624;2023-04-01T19:16:21;100297.56;;;8.09;100.00
35151;BME280;55720;51.972;4.624;2023-04-01T19:19:13;100302.75;;;8.02;100.00
35151;BME280;55720;51.972;4.624;2023-04-01T19:21:47;100292.94;;;8.01;100.00
35151;BME280;55720;51.972;4.624;2023-04-01T19:24:40;100303.41;;;7.99;100.00
35151;BME280;55720;51.972;4.624;2023-04-01T19:33:12;100292.31;;;7.96;100.00
35151;BME280;55720;51.972;4.624;2023-04-01T19:52:00;100266.66;;;7.79;100.00
35151;BME280;55720;51.972;4.624;2023-04-01T19:54:40;100245.91;;;7.78;100.00
35151;BME280;55720;51.972;4.624;2023-04-01T19:59:57;100199.94;;;7.80;100.00
35151;BME280;55720;51.972;4.624;2023-04-01T20:04:56;100286.09;;;7.78;100.00
35151;BME280;55720;51.972;4.624;2023-04-01T20:07:34;100291.56;;;7.78;100.00
35151;BME280;55720;51.972;4.624;2023-04-01T20:10:47;100279.72;;;7.74;100.00
35151;BME280;55720;51.972;4.624;2023-04-01T20:16:01;100269.91;;;7.73;100.00
35151;BME280;55720;51.972;4.624;2023-04-01T20:18:51;100261.03;;;7.76;100.00
35151;BME280;55720;51.972;4.624;2023-04-01T20:21:33;100254.47;;;7.68;100.00
35151;BME280;55720;51.972;4.624;2023-04-01T20:24:26;100258.97;;;7.64;100.00
35151;BME280;55720;51.972;4.624;2023-04-01T20:27:21;100235.19;;;7.65;100.00
35151;BME280;55720;51.972;4.624;2023-04-01T20:51:45;100166.16;;;7.56;100.00
35151;BME280;55720;51.972;4.624;2023-04-01T20:57:14;100169.38;;;7.49;100.00
35151;BME280;55720;51.972;4.624;2023-04-01T20:59:56;100161.69;;;7.42;100.00
35151;BME280;55720;51.972;4.624;2023-04-01T21:02:47;100161.75;;;7.34;100.00
35151;BME280;55720;51.972;4.624;2023-04-01T21:07:53;100171.19;;;7.36;100.00
35151;BME280;55720;51.972;4.624;2023-04-01T21:10:41;100162.38;;;7.31;100.00
35151;BME280;55720;51.972;4.624;2023-04-01T21:18:47;100173.16;;;7.27;100.00
35151;BME280;55720;51.972;4.624;2023-04-01T21:29:55;100162.28;;;7.19;100.00
35151;BME280;55720;51.972;4.624;2023-04-01T21:41:34;100169.34;;;7.11;100.00
35151;BME280;55720;51.972;4.624;2023-04-01T21:44:24;100167.75;;;7.10;100.00
35151;BME280;55720;51.972;4.624;2023-04-01T21:58:17;100182.88;;;6.99;100.00
35151;BME280;55720;51.972;4.624;2023-04-01T22:06:34;100184.63;;;6.95;100.00
35151;BME280;55720;51.972;4.624;2023-04-01T22:09:21;100179.16;;;6.95;100.00
35151;BME280;55720;51.972;4.624;2023-04-01T22:14:47;100194.13;;;6.89;100.00
35151;BME280;55720;51.972;4.624;2023-04-01T22:17:20;100195.88;;;6.85;100.00
35151;BME280;55720;51.972;4.624;2023-04-01T22:20:23;100193.50;;;6.83;100.00
35151;BME280;55720;51.972;4.624;2023-04-01T22:28:10;100222.88;;;6.78;100.00
35151;BME280;55720;51.972;4.624;2023-04-01T22:30:50;100232.50;;;6.75;100.00
35151;BME280;55720;51.972;4.624;2023-04-01T22:43:42;100247.25;;;6.66;100.00
35151;BME280;55720;51.972;4.624;2023-04-01T22:51:47;100263.94;;;6.56;100.00
35151;BME280;55720;51.972;4.624;2023-04-01T22:54:39;100254.63;;;6.57;100.00
35151;BME280;55720;51.972;4.624;2023-04-01T23:00:01;100255.75;;;6.56;100.00
35151;BME280;55720;51.972;4.624;2023-04-01T23:02:33;100269.56;;;6.51;100.00
35151;BME280;55720;51.972;4.624;2023-04-01T23:05:02;100286.09;;;6.54;100.00
35151;BME280;55720;51.972;4.624;2023-04-01T23:07:53;100280.94;;;6.53;100.00
35151;BME280;55720;51.972;4.624;2023-04-01T23:10:28;100291.22;;;6.56;100.00
35151;BME280;55720;51.972;4.624;2023-04-01T23:12:58;100297.94;;;6.50;100.00
35151;BME280;55720;51.972;4.624;2023-04-01T23:15:27;100299.56;;;6.51;100.00
35151;BME280;55720;51.972;4.624;2023-04-01T23:23:35;100314.94;;;6.47;100.00
35151;BME280;55720;51.972;4.624;2023-04-01T23:33:58;100342.53;;;6.45;100.00
35151;BME280;55720;51.972;4.624;2023-04-01T23:36:24;100335.78;;;6.42;100.00
35151;BME280;55720;51.972;4.624;2023-04-01T23:38:50;100335.78;;;6.42;100.00
35151;BME280;55720;51.972;4.624;2023-04-01T23:41:23;100339.63;;;6.41;100.00
35151;BME280;55720;51.972;4.624;2023-04-01T23:44:02;100341.88;;;6.39;100.00
35151;BME280;55720;51.972;4.624;2023-04-01T23:46:30;100339.63;;;6.33;100.00
35151;BME280;55720;51.972;4.624;2023-04-01T23:48:57;100347.28;;;6.31;100.00
35151;BME280;55720;51.972;4.624;2023-04-01T23:51:26;100349.53;;;6.29;100.00
35151;BME280;55720;51.972;4.624;2023-04-01T23:54:10;100350.03;;;6.31;100.00